sensor_id;sensor_type;location;lat;lon;timestamp;P1;durP1;ratioP1;P2;durP2;ratioP2
65581;SDS011;52231;40.090;18.348;2023-12-14T00:00:27;60.38;;;7.78;;
65581;SDS011;52231;40.090;18.348;2023-12-14T00:02:55;52.08;;;8.02;;
65581;SDS011;52231;40.090;18.348;2023-12-14T00:05:23;58.25;;;8.48;;
65581;SDS011;52231;40.090;18.348;2023-12-14T00:10:20;51.75;;;8.80;;
65581;SDS011;52231;40.090;18.348;2023-12-14T00:12:48;48.83;;;7.03;;
65581;SDS011;52231;40.090;18.348;2023-12-14T00:15:18;53.50;;;7.93;;
65581;SDS011;52231;40.090;18.348;2023-12-14T00:17:46;59.47;;;7.57;;
65581;SDS011;52231;40.090;18.348;2023-12-14T00:20:14;51.92;;;8.65;;
65581;SDS011;52231;40.090;18.348;2023-12-14T00:22:45;43.88;;;6.28;;
65581;SDS011;52231;40.090;18.348;2023-12-14T00:25:13;54.72;;;7.15;;
65581;SDS011;52231;40.090;18.348;2023-12-14T00:27:41;43.85;;;6.78;;
65581;SDS011;52231;40.090;18.348;2023-12-14T00:30:10;61.35;;;8.82;;
65581;SDS011;52231;40.090;18.348;2023-12-14T00:32:41;52.60;;;7.32;;
65581;SDS011;52231;40.090;18.348;2023-12-14T00:35:09;57.63;;;7.05;;
65581;SDS011;52231;40.090;18.348;2023-12-14T00:37:37;47.97;;;8.05;;
65581;SDS011;52231;40.090;18.348;2023-12-14T00:40:05;54.90;;;7.10;;
65581;SDS011;52231;40.090;18.348;2023-12-14T00:42:34;54.45;;;6.55;;
65581;SDS011;52231;40.090;18.348;2023-12-14T00:45:02;55.45;;;6.78;;
65581;SDS011;52231;40.090;18.348;2023-12-14T00:47:31;58.92;;;6.57;;
65581;SDS011;52231;40.090;18.348;2023-12-14T00:49:59;43.70;;;7.13;;
65581;SDS011;52231;40.090;18.348;2023-12-14T00:52:27;62.78;;;7.43;;
65581;SDS011;52231;40.090;18.348;2023-12-14T00:54:55;52.78;;;8.15;;
65581;SDS011;52231;40.090;18.348;2023-12-14T00:57:23;53.53;;;6.93;;
65581;SDS011;52231;40.090;18.348;2023-12-14T00:59:53;53.08;;;6.68;;
65581;SDS011;52231;40.090;18.348;2023-12-14T01:02:21;54.83;;;8.75;;
65581;SDS011;52231;40.090;18.348;2023-12-14T01:04:49;51.25;;;6.68;;
65581;SDS011;52231;40.090;18.348;2023-12-14T01:07:17;58.20;;;7.55;;
65581;SDS011;52231;40.090;18.348;2023-12-14T01:09:45;56.22;;;7.28;;
65581;SDS011;52231;40.090;18.348;2023-12-14T01:12:13;53.67;;;7.03;;
65581;SDS011;52231;40.090;18.348;2023-12-14T01:14:41;36.22;;;5.30;;
65581;SDS011;52231;40.090;18.348;2023-12-14T01:17:10;38.00;;;5.65;;
65581;SDS011;52231;40.090;18.348;2023-12-14T01:19:41;50.25;;;6.68;;
65581;SDS011;52231;40.090;18.348;2023-12-14T01:22:09;41.90;;;6.35;;
65581;SDS011;52231;40.090;18.348;2023-12-14T01:24:38;44.75;;;6.50;;
65581;SDS011;52231;40.090;18.348;2023-12-14T01:27:06;45.60;;;6.38;;
65581;SDS011;52231;40.090;18.348;2023-12-14T01:29:34;55.60;;;6.40;;
65581;SDS011;52231;40.090;18.348;2023-12-14T01:32:02;50.47;;;6.38;;
65581;SDS011;52231;40.090;18.348;2023-12-14T01:34:30;48.53;;;7.28;;
65581;SDS011;52231;40.090;18.348;2023-12-14T01:36:58;47.47;;;6.38;;
65581;SDS011;52231;40.090;18.348;2023-12-14T01:39:26;45.65;;;6.75;;
65581;SDS011;52231;40.090;18.348;2023-12-14T01:41:54;41.63;;;5.88;;
65581;SDS011;52231;40.090;18.348;2023-12-14T01:44:22;54.10;;;6.95;;
65581;SDS011;52231;40.090;18.348;2023-12-14T01:46:50;48.88;;;6.15;;
65581;SDS011;52231;40.090;18.348;2023-12-14T01:49:18;56.65;;;7.30;;
65581;SDS011;52231;40.090;18.348;2023-12-14T01:51:46;44.80;;;6.93;;
65581;SDS011;52231;40.090;18.348;2023-12-14T01:54:14;49.05;;;7.38;;
65581;SDS011;52231;40.090;18.348;2023-12-14T01:56:43;44.83;;;6.68;;
65581;SDS011;52231;40.090;18.348;2023-12-14T01:59:11;62.00;;;8.35;;
65581;SDS011;52231;40.090;18.348;2023-12-14T02:01:45;48.25;;;7.63;;
65581;SDS011;52231;40.090;18.348;2023-12-14T02:04:14;48.25;;;7.18;;
65581;SDS011;52231;40.090;18.348;2023-12-14T02:06:42;60.15;;;7.03;;
65581;SDS011;52231;40.090;18.348;2023-12-14T02:09:10;39.72;;;6.15;;
65581;SDS011;52231;40.090;18.348;2023-12-14T02:14:08;44.67;;;6.65;;
65581;SDS011;52231;40.090;18.348;2023-12-14T02:16:37;43.13;;;6.93;;
65581;SDS011;52231;40.090;18.348;2023-12-14T02:19:06;50.88;;;6.90;;
65581;SDS011;52231;40.090;18.348;2023-12-14T02:21:34;52.03;;;7.18;;
65581;SDS011;52231;40.090;18.348;2023-12-14T02:24:02;57.60;;;6.82;;
65581;SDS011;52231;40.090;18.348;2023-12-14T02:28:58;49.25;;;6.00;;
65581;SDS011;52231;40.090;18.348;2023-12-14T02:31:26;54.92;;;6.25;;
65581;SDS011;52231;40.090;18.348;2023-12-14T02:33:55;44.65;;;5.25;;
65581;SDS011;52231;40.090;18.348;2023-12-14T02:36:23;49.03;;;7.47;;
65581;SDS011;52231;40.090;18.348;2023-12-14T02:38:51;43.10;;;6.60;;
65581;SDS011;52231;40.090;18.348;2023-12-14T02:41:19;48.83;;;6.32;;
65581;SDS011;52231;40.090;18.348;2023-12-14T02:43:47;44.38;;;6.00;;
65581;SDS011;52231;40.090;18.348;2023-12-14T02:46:15;43.15;;;5.95;;
65581;SDS011;52231;40.090;18.348;2023-12-14T02:48:45;49.30;;;7.07;;
65581;SDS011;52231;40.090;18.348;2023-12-14T02:51:14;44.88;;;5.88;;
65581;SDS011;52231;40.090;18.348;2023-12-14T02:56:10;60.90;;;7.18;;
65581;SDS011;52231;40.090;18.348;2023-12-14T03:01:07;45.70;;;6.75;;
65581;SDS011;52231;40.090;18.348;2023-12-14T03:03:38;45.28;;;5.75;;
65581;SDS011;52231;40.090;18.348;2023-12-14T03:06:07;46.28;;;6.18;;
65581;SDS011;52231;40.090;18.348;2023-12-14T03:08:35;52.88;;;6.43;;
65581;SDS011;52231;40.090;18.348;2023-12-14T03:11:03;57.53;;;5.45;;
65581;SDS011;52231;40.090;18.348;2023-12-14T03:13:31;52.47;;;7.43;;
65581;SDS011;52231;40.090;18.348;2023-12-14T03:16:00;59.00;;;7.55;;
65581;SDS011;52231;40.090;18.348;2023-12-14T03:18:28;56.15;;;6.88;;
65581;SDS011;52231;40.090;18.348;2023-12-14T03:20:56;51.17;;;6.60;;
65581;SDS011;52231;40.090;18.348;2023-12-14T03:23:24;53.38;;;6.68;;
65581;SDS011;52231;40.090;18.348;2023-12-14T03:25:52;51.05;;;6.32;;
65581;SDS011;52231;40.090;18.348;2023-12-14T03:28:20;67.20;;;7.75;;
65581;SDS011;52231;40.090;18.348;2023-12-14T03:30:48;57.95;;;6.53;;
65581;SDS011;52231;40.090;18.348;2023-12-14T03:33:16;62.78;;;6.03;;
65581;SDS011;52231;40.090;18.348;2023-12-14T03:35:44;57.40;;;6.90;;
65581;SDS011;52231;40.090;18.348;2023-12-14T03:38:14;56.25;;;6.13;;
65581;SDS011;52231;40.090;18.348;2023-12-14T03:40:42;55.25;;;6.35;;
65581;SDS011;52231;40.090;18.348;2023-12-14T03:43:10;42.30;;;5.75;;
65581;SDS011;52231;40.090;18.348;2023-12-14T03:45:38;54.05;;;6.90;;
65581;SDS011;52231;40.090;18.348;2023-12-14T03:48:06;50.33;;;6.95;;
65581;SDS011;52231;40.090;18.348;2023-12-14T03:50:34;55.20;;;6.55;;
65581;SDS011;52231;40.090;18.348;2023-12-14T03:53:02;57.03;;;6.43;;
65581;SDS011;52231;40.090;18.348;2023-12-14T03:55:30;55.63;;;7.03;;
65581;SDS011;52231;40.090;18.348;2023-12-14T03:57:58;71.72;;;7.60;;
65581;SDS011;52231;40.090;18.348;2023-12-14T04:00:26;53.92;;;6.95;;
65581;SDS011;52231;40.090;18.348;2023-12-14T04:02:54;60.15;;;6.38;;
65581;SDS011;52231;40.090;18.348;2023-12-14T04:05:22;50.72;;;6.47;;
65581;SDS011;52231;40.090;18.348;2023-12-14T04:07:50;64.32;;;6.88;;
65581;SDS011;52231;40.090;18.348;2023-12-14T04:10:19;81.43;;;7.88;;
65581;SDS011;52231;40.090;18.348;2023-12-14T04:12:47;50.50;;;7.03;;
65581;SDS011;52231;40.090;18.348;2023-12-14T04:15:21;58.78;;;6.53;;
65581;SDS011;52231;40.090;18.348;2023-12-14T04:17:49;62.33;;;7.43;;
65581;SDS011;52231;40.090;18.348;2023-12-14T04:20:17;64.25;;;8.52;;
65581;SDS011;52231;40.090;18.348;2023-12-14T04:22:45;55.33;;;6.80;;
65581;SDS011;52231;40.090;18.348;2023-12-14T04:25:14;56.03;;;6.15;;
65581;SDS011;52231;40.090;18.348;2023-12-14T04:27:42;73.10;;;7.60;;
65581;SDS011;52231;40.090;18.348;2023-12-14T04:30:10;62.17;;;7.28;;
65581;SDS011;52231;40.090;18.348;2023-12-14T04:32:39;71.53;;;7.97;;
65581;SDS011;52231;40.090;18.348;2023-12-14T04:35:07;61.88;;;7.28;;
65581;SDS011;52231;40.090;18.348;2023-12-14T04:37:35;65.40;;;8.38;;
65581;SDS011;52231;40.090;18.348;2023-12-14T04:40:04;63.15;;;7.93;;
65581;SDS011;52231;40.090;18.348;2023-12-14T04:42:33;49.92;;;6.50;;
65581;SDS011;52231;40.090;18.348;2023-12-14T04:45:02;68.43;;;7.32;;
65581;SDS011;52231;40.090;18.348;2023-12-14T04:47:30;64.95;;;8.93;;
65581;SDS011;52231;40.090;18.348;2023-12-14T04:49:58;56.08;;;7.38;;
65581;SDS011;52231;40.090;18.348;2023-12-14T04:52:26;73.50;;;6.97;;
65581;SDS011;52231;40.090;18.348;2023-12-14T04:54:54;63.92;;;7.32;;
65581;SDS011;52231;40.090;18.348;2023-12-14T04:57:22;82.97;;;8.93;;
65581;SDS011;52231;40.090;18.348;2023-12-14T04:59:50;59.58;;;8.15;;
65581;SDS011;52231;40.090;18.348;2023-12-14T05:02:18;62.92;;;7.53;;
65581;SDS011;52231;40.090;18.348;2023-12-14T05:04:46;66.50;;;7.32;;
65581;SDS011;52231;40.090;18.348;2023-12-14T05:07:14;70.35;;;8.30;;
65581;SDS011;52231;40.090;18.348;2023-12-14T05:09:43;61.92;;;6.18;;
65581;SDS011;52231;40.090;18.348;2023-12-14T05:12:11;74.30;;;7.55;;
65581;SDS011;52231;40.090;18.348;2023-12-14T05:14:39;75.03;;;7.53;;
65581;SDS011;52231;40.090;18.348;2023-12-14T05:17:07;61.75;;;7.22;;
65581;SDS011;52231;40.090;18.348;2023-12-14T05:19:35;77.90;;;7.25;;
65581;SDS011;52231;40.090;18.348;2023-12-14T05:22:04;68.38;;;6.68;;
65581;SDS011;52231;40.090;18.348;2023-12-14T05:24:33;67.38;;;7.00;;
65581;SDS011;52231;40.090;18.348;2023-12-14T05:27:01;60.78;;;7.13;;
65581;SDS011;52231;40.090;18.348;2023-12-14T05:29:30;61.95;;;7.50;;
65581;SDS011;52231;40.090;18.348;2023-12-14T05:32:00;74.20;;;7.53;;
65581;SDS011;52231;40.090;18.348;2023-12-14T05:34:28;67.88;;;8.07;;
65581;SDS011;52231;40.090;18.348;2023-12-14T05:36:56;61.03;;;7.18;;
65581;SDS011;52231;40.090;18.348;2023-12-14T05:39:24;71.18;;;9.55;;
65581;SDS011;52231;40.090;18.348;2023-12-14T05:41:52;71.10;;;8.27;;
65581;SDS011;52231;40.090;18.348;2023-12-14T05:44:21;65.10;;;8.85;;
65581;SDS011;52231;40.090;18.348;2023-12-14T05:46:51;57.67;;;7.60;;
65581;SDS011;52231;40.090;18.348;2023-12-14T05:49:19;70.35;;;8.10;;
65581;SDS011;52231;40.090;18.348;2023-12-14T05:51:47;63.72;;;7.93;;
65581;SDS011;52231;40.090;18.348;2023-12-14T05:54:15;75.90;;;6.88;;
65581;SDS011;52231;40.090;18.348;2023-12-14T05:56:44;64.30;;;8.30;;
65581;SDS011;52231;40.090;18.348;2023-12-14T05:59:12;73.88;;;8.25;;
65581;SDS011;52231;40.090;18.348;2023-12-14T06:01:40;64.22;;;8.13;;
65581;SDS011;52231;40.090;18.348;2023-12-14T06:04:11;68.30;;;8.48;;
65581;SDS011;52231;40.090;18.348;2023-12-14T06:06:39;59.33;;;8.35;;
65581;SDS011;52231;40.090;18.348;2023-12-14T06:09:07;62.05;;;8.25;;
65581;SDS011;52231;40.090;18.348;2023-12-14T06:11:36;71.15;;;7.40;;
65581;SDS011;52231;40.090;18.348;2023-12-14T06:14:05;75.63;;;7.43;;
65581;SDS011;52231;40.090;18.348;2023-12-14T06:16:33;68.50;;;7.60;;
65581;SDS011;52231;40.090;18.348;2023-12-14T06:19:01;66.65;;;8.70;;
65581;SDS011;52231;40.090;18.348;2023-12-14T06:21:29;62.78;;;8.48;;
65581;SDS011;52231;40.090;18.348;2023-12-14T06:23:57;72.43;;;8.32;;
65581;SDS011;52231;40.090;18.348;2023-12-14T06:26:26;77.95;;;8.43;;
65581;SDS011;52231;40.090;18.348;2023-12-14T06:28:55;69.95;;;9.02;;
65581;SDS011;52231;40.090;18.348;2023-12-14T06:31:23;72.28;;;10.15;;
65581;SDS011;52231;40.090;18.348;2023-12-14T06:33:51;65.15;;;8.90;;
65581;SDS011;52231;40.090;18.348;2023-12-14T06:36:20;65.32;;;9.43;;
65581;SDS011;52231;40.090;18.348;2023-12-14T06:38:48;74.80;;;9.75;;
65581;SDS011;52231;40.090;18.348;2023-12-14T06:41:20;59.63;;;8.15;;
65581;SDS011;52231;40.090;18.348;2023-12-14T06:43:51;74.38;;;8.52;;
65581;SDS011;52231;40.090;18.348;2023-12-14T06:46:20;64.75;;;9.05;;
65581;SDS011;52231;40.090;18.348;2023-12-14T06:48:48;68.47;;;9.15;;
65581;SDS011;52231;40.090;18.348;2023-12-14T06:51:17;61.42;;;8.80;;
65581;SDS011;52231;40.090;18.348;2023-12-14T06:53:45;59.80;;;8.05;;
65581;SDS011;52231;40.090;18.348;2023-12-14T06:56:14;54.25;;;9.48;;
65581;SDS011;52231;40.090;18.348;2023-12-14T06:58:43;60.03;;;9.32;;
65581;SDS011;52231;40.090;18.348;2023-12-14T07:01:12;51.55;;;8.68;;
65581;SDS011;52231;40.090;18.348;2023-12-14T07:03:42;64.90;;;7.70;;
65581;SDS011;52231;40.090;18.348;2023-12-14T07:06:14;67.07;;;8.88;;
65581;SDS011;52231;40.090;18.348;2023-12-14T07:08:43;61.78;;;9.07;;
65581;SDS011;52231;40.090;18.348;2023-12-14T07:11:13;64.05;;;9.15;;
65581;SDS011;52231;40.090;18.348;2023-12-14T07:13:41;60.42;;;9.15;;
65581;SDS011;52231;40.090;18.348;2023-12-14T07:16:10;46.80;;;8.88;;
65581;SDS011;52231;40.090;18.348;2023-12-14T07:18:39;49.67;;;8.45;;
65581;SDS011;52231;40.090;18.348;2023-12-14T07:21:08;51.13;;;9.05;;
65581;SDS011;52231;40.090;18.348;2023-12-14T07:23:37;56.33;;;9.00;;
65581;SDS011;52231;40.090;18.348;2023-12-14T07:26:09;51.97;;;10.20;;
65581;SDS011;52231;40.090;18.348;2023-12-14T07:28:37;40.45;;;7.82;;
65581;SDS011;52231;40.090;18.348;2023-12-14T07:31:06;52.08;;;10.50;;
65581;SDS011;52231;40.090;18.348;2023-12-14T07:33:34;43.65;;;8.90;;
65581;SDS011;52231;40.090;18.348;2023-12-14T07:36:03;49.97;;;8.65;;
65581;SDS011;52231;40.090;18.348;2023-12-14T07:38:32;39.67;;;9.32;;
65581;SDS011;52231;40.090;18.348;2023-12-14T07:41:01;44.92;;;8.98;;
65581;SDS011;52231;40.090;18.348;2023-12-14T07:43:29;44.80;;;9.05;;
65581;SDS011;52231;40.090;18.348;2023-12-14T07:45:57;36.47;;;8.93;;
65581;SDS011;52231;40.090;18.348;2023-12-14T07:50:56;31.85;;;7.88;;
65581;SDS011;52231;40.090;18.348;2023-12-14T07:53:24;37.35;;;8.45;;
65581;SDS011;52231;40.090;18.348;2023-12-14T07:55:52;32.90;;;6.80;;
65581;SDS011;52231;40.090;18.348;2023-12-14T07:58:20;33.65;;;8.38;;
65581;SDS011;52231;40.090;18.348;2023-12-14T08:00:48;33.85;;;8.48;;
65581;SDS011;52231;40.090;18.348;2023-12-14T08:03:17;30.60;;;7.63;;
65581;SDS011;52231;40.090;18.348;2023-12-14T08:05:45;30.83;;;6.97;;
65581;SDS011;52231;40.090;18.348;2023-12-14T08:08:13;30.52;;;6.85;;
65581;SDS011;52231;40.090;18.348;2023-12-14T08:10:41;25.92;;;6.43;;
65581;SDS011;52231;40.090;18.348;2023-12-14T08:13:10;28.98;;;7.63;;
65581;SDS011;52231;40.090;18.348;2023-12-14T08:15:38;35.55;;;8.00;;
65581;SDS011;52231;40.090;18.348;2023-12-14T08:18:06;31.05;;;7.35;;
65581;SDS011;52231;40.090;18.348;2023-12-14T08:20:35;29.52;;;6.88;;
65581;SDS011;52231;40.090;18.348;2023-12-14T08:23:03;31.60;;;7.43;;
65581;SDS011;52231;40.090;18.348;2023-12-14T08:25:31;35.47;;;8.30;;
65581;SDS011;52231;40.090;18.348;2023-12-14T08:27:59;31.90;;;9.20;;
65581;SDS011;52231;40.090;18.348;2023-12-14T08:30:28;30.42;;;7.32;;
65581;SDS011;52231;40.090;18.348;2023-12-14T08:32:57;23.20;;;6.40;;
65581;SDS011;52231;40.090;18.348;2023-12-14T08:35:25;28.63;;;7.50;;
65581;SDS011;52231;40.090;18.348;2023-12-14T08:37:53;37.50;;;10.10;;
65581;SDS011;52231;40.090;18.348;2023-12-14T08:40:22;31.92;;;9.90;;
65581;SDS011;52231;40.090;18.348;2023-12-14T08:42:50;31.25;;;7.38;;
65581;SDS011;52231;40.090;18.348;2023-12-14T08:45:18;32.70;;;7.47;;
65581;SDS011;52231;40.090;18.348;2023-12-14T08:47:46;32.17;;;7.10;;
65581;SDS011;52231;40.090;18.348;2023-12-14T08:50:14;29.38;;;7.30;;
65581;SDS011;52231;40.090;18.348;2023-12-14T08:52:44;32.38;;;7.13;;
65581;SDS011;52231;40.090;18.348;2023-12-14T08:55:13;26.02;;;6.95;;
65581;SDS011;52231;40.090;18.348;2023-12-14T08:57:41;29.63;;;6.82;;
65581;SDS011;52231;40.090;18.348;2023-12-14T09:00:10;34.95;;;6.43;;
65581;SDS011;52231;40.090;18.348;2023-12-14T09:02:39;24.95;;;6.45;;
65581;SDS011;52231;40.090;18.348;2023-12-14T09:05:07;27.35;;;7.07;;
65581;SDS011;52231;40.090;18.348;2023-12-14T09:07:36;25.42;;;7.25;;
65581;SDS011;52231;40.090;18.348;2023-12-14T09:10:04;31.48;;;7.03;;
65581;SDS011;52231;40.090;18.348;2023-12-14T09:12:36;29.85;;;7.32;;
65581;SDS011;52231;40.090;18.348;2023-12-14T09:15:05;28.60;;;7.07;;
65581;SDS011;52231;40.090;18.348;2023-12-14T09:17:33;26.15;;;7.00;;
65581;SDS011;52231;40.090;18.348;2023-12-14T09:20:03;28.35;;;8.15;;
65581;SDS011;52231;40.090;18.348;2023-12-14T09:22:34;26.67;;;6.50;;
65581;SDS011;52231;40.090;18.348;2023-12-14T09:25:05;26.65;;;8.25;;
65581;SDS011;52231;40.090;18.348;2023-12-14T09:27:34;27.63;;;7.57;;
65581;SDS011;52231;40.090;18.348;2023-12-14T09:32:31;32.45;;;7.60;;
65581;SDS011;52231;40.090;18.348;2023-12-14T09:35:00;30.02;;;7.38;;
65581;SDS011;52231;40.090;18.348;2023-12-14T09:37:28;34.35;;;11.93;;
65581;SDS011;52231;40.090;18.348;2023-12-14T09:39:56;28.55;;;8.10;;
65581;SDS011;52231;40.090;18.348;2023-12-14T09:42:24;31.90;;;13.90;;
65581;SDS011;52231;40.090;18.348;2023-12-14T09:44:53;26.05;;;7.40;;
65581;SDS011;52231;40.090;18.348;2023-12-14T09:47:23;30.60;;;11.10;;
65581;SDS011;52231;40.090;18.348;2023-12-14T09:52:20;33.58;;;9.98;;
65581;SDS011;52231;40.090;18.348;2023-12-14T09:54:48;32.00;;;9.18;;
65581;SDS011;52231;40.090;18.348;2023-12-14T09:57:20;26.00;;;6.22;;
65581;SDS011;52231;40.090;18.348;2023-12-14T09:59:52;29.08;;;6.97;;
65581;SDS011;52231;40.090;18.348;2023-12-14T10:02:27;34.97;;;12.98;;
65581;SDS011;52231;40.090;18.348;2023-12-14T10:04:55;37.50;;;7.30;;
65581;SDS011;52231;40.090;18.348;2023-12-14T10:07:24;35.17;;;6.80;;
65581;SDS011;52231;40.090;18.348;2023-12-14T10:09:52;29.20;;;6.63;;
65581;SDS011;52231;40.090;18.348;2023-12-14T10:15:02;29.58;;;6.35;;
65581;SDS011;52231;40.090;18.348;2023-12-14T10:17:33;41.33;;;30.25;;
65581;SDS011;52231;40.090;18.348;2023-12-14T10:20:02;30.70;;;7.00;;
65581;SDS011;52231;40.090;18.348;2023-12-14T10:22:31;33.70;;;8.00;;
65581;SDS011;52231;40.090;18.348;2023-12-14T10:25:00;28.33;;;7.00;;
65581;SDS011;52231;40.090;18.348;2023-12-14T10:27:29;30.00;;;7.53;;
65581;SDS011;52231;40.090;18.348;2023-12-14T10:29:59;31.75;;;7.35;;
65581;SDS011;52231;40.090;18.348;2023-12-14T10:32:27;29.40;;;8.32;;
65581;SDS011;52231;40.090;18.348;2023-12-14T10:34:57;27.90;;;10.05;;
65581;SDS011;52231;40.090;18.348;2023-12-14T10:37:25;46.65;;;12.13;;
65581;SDS011;52231;40.090;18.348;2023-12-14T10:39:53;34.25;;;11.15;;
65581;SDS011;52231;40.090;18.348;2023-12-14T10:42:22;33.42;;;12.75;;
65581;SDS011;52231;40.090;18.348;2023-12-14T10:44:56;36.33;;;11.52;;
65581;SDS011;52231;40.090;18.348;2023-12-14T10:47:25;33.08;;;11.00;;
65581;SDS011;52231;40.090;18.348;2023-12-14T10:49:58;31.05;;;10.48;;
65581;SDS011;52231;40.090;18.348;2023-12-14T10:52:28;37.75;;;11.27;;
65581;SDS011;52231;40.090;18.348;2023-12-14T10:55:00;38.90;;;12.63;;
65581;SDS011;52231;40.090;18.348;2023-12-14T10:57:33;33.58;;;12.10;;
65581;SDS011;52231;40.090;18.348;2023-12-14T11:00:02;31.60;;;11.02;;
65581;SDS011;52231;40.090;18.348;2023-12-14T11:02:39;31.70;;;10.63;;
65581;SDS011;52231;40.090;18.348;2023-12-14T11:05:14;29.63;;;10.35;;
65581;SDS011;52231;40.090;18.348;2023-12-14T11:07:45;23.48;;;8.05;;
65581;SDS011;52231;40.090;18.348;2023-12-14T11:10:14;28.15;;;8.32;;
65581;SDS011;52231;40.090;18.348;2023-12-14T11:12:56;27.70;;;9.25;;
65581;SDS011;52231;40.090;18.348;2023-12-14T11:15:29;24.02;;;7.30;;
65581;SDS011;52231;40.090;18.348;2023-12-14T11:23:13;20.20;;;4.80;;
65581;SDS011;52231;40.090;18.348;2023-12-14T11:25:47;25.10;;;5.03;;
65581;SDS011;52231;40.090;18.348;2023-12-14T11:28:19;22.00;;;4.90;;
65581;SDS011;52231;40.090;18.348;2023-12-14T11:30:48;23.35;;;5.18;;
65581;SDS011;52231;40.090;18.348;2023-12-14T11:33:18;20.90;;;5.80;;
65581;SDS011;52231;40.090;18.348;2023-12-14T11:35:46;20.17;;;5.70;;
65581;SDS011;52231;40.090;18.348;2023-12-14T11:40:43;18.77;;;4.88;;
65581;SDS011;52231;40.090;18.348;2023-12-14T11:43:11;19.27;;;3.47;;
65581;SDS011;52231;40.090;18.348;2023-12-14T11:45:39;15.15;;;3.80;;
65581;SDS011;52231;40.090;18.348;2023-12-14T11:48:09;15.93;;;3.20;;
65581;SDS011;52231;40.090;18.348;2023-12-14T11:50:40;16.02;;;3.47;;
65581;SDS011;52231;40.090;18.348;2023-12-14T11:53:10;14.50;;;3.50;;
65581;SDS011;52231;40.090;18.348;2023-12-14T11:55:40;13.25;;;3.55;;
65581;SDS011;52231;40.090;18.348;2023-12-14T11:58:11;16.25;;;4.00;;
65581;SDS011;52231;40.090;18.348;2023-12-14T12:00:41;14.30;;;3.47;;
65581;SDS011;52231;40.090;18.348;2023-12-14T12:03:10;18.50;;;3.90;;
65581;SDS011;52231;40.090;18.348;2023-12-14T12:05:41;12.05;;;2.70;;
65581;SDS011;52231;40.090;18.348;2023-12-14T12:08:11;11.65;;;2.67;;
65581;SDS011;52231;40.090;18.348;2023-12-14T12:10:41;11.52;;;2.67;;
65581;SDS011;52231;40.090;18.348;2023-12-14T12:13:11;11.20;;;3.03;;
65581;SDS011;52231;40.090;18.348;2023-12-14T12:15:40;13.20;;;2.60;;
65581;SDS011;52231;40.090;18.348;2023-12-14T12:18:09;10.25;;;2.40;;
65581;SDS011;52231;40.090;18.348;2023-12-14T12:20:39;11.10;;;2.63;;
65581;SDS011;52231;40.090;18.348;2023-12-14T12:23:07;14.75;;;3.05;;
65581;SDS011;52231;40.090;18.348;2023-12-14T12:25:36;11.07;;;2.60;;
65581;SDS011;52231;40.090;18.348;2023-12-14T12:28:04;10.98;;;2.70;;
65581;SDS011;52231;40.090;18.348;2023-12-14T12:30:32;14.88;;;2.78;;
65581;SDS011;52231;40.090;18.348;2023-12-14T12:33:02;9.85;;;2.30;;
65581;SDS011;52231;40.090;18.348;2023-12-14T12:35:30;14.38;;;2.50;;
65581;SDS011;52231;40.090;18.348;2023-12-14T12:38:01;11.00;;;2.53;;
65581;SDS011;52231;40.090;18.348;2023-12-14T12:40:29;10.00;;;2.40;;
65581;SDS011;52231;40.090;18.348;2023-12-14T12:42:59;8.02;;;2.47;;
65581;SDS011;52231;40.090;18.348;2023-12-14T12:45:30;10.50;;;2.20;;
65581;SDS011;52231;40.090;18.348;2023-12-14T12:48:00;8.15;;;2.33;;
65581;SDS011;52231;40.090;18.348;2023-12-14T12:50:30;11.55;;;2.30;;
65581;SDS011;52231;40.090;18.348;2023-12-14T12:52:59;13.48;;;2.88;;
65581;SDS011;52231;40.090;18.348;2023-12-14T12:55:27;7.50;;;2.17;;
65581;SDS011;52231;40.090;18.348;2023-12-14T12:57:55;6.10;;;1.75;;
65581;SDS011;52231;40.090;18.348;2023-12-14T13:00:25;16.00;;;5.88;;
65581;SDS011;52231;40.090;18.348;2023-12-14T13:02:53;12.40;;;2.20;;
65581;SDS011;52231;40.090;18.348;2023-12-14T13:05:21;7.10;;;1.98;;
65581;SDS011;52231;40.090;18.348;2023-12-14T13:07:52;8.50;;;2.33;;
65581;SDS011;52231;40.090;18.348;2023-12-14T13:10:21;7.15;;;2.22;;
65581;SDS011;52231;40.090;18.348;2023-12-14T13:12:54;7.78;;;2.58;;
65581;SDS011;52231;40.090;18.348;2023-12-14T13:15:24;8.05;;;3.00;;
65581;SDS011;52231;40.090;18.348;2023-12-14T13:17:53;9.00;;;2.60;;
65581;SDS011;52231;40.090;18.348;2023-12-14T13:20:21;6.40;;;2.00;;
65581;SDS011;52231;40.090;18.348;2023-12-14T13:22:49;6.45;;;2.38;;
65581;SDS011;52231;40.090;18.348;2023-12-14T13:25:18;7.13;;;2.53;;
65581;SDS011;52231;40.090;18.348;2023-12-14T13:27:47;10.50;;;3.30;;
65581;SDS011;52231;40.090;18.348;2023-12-14T13:30:15;6.43;;;2.50;;
65581;SDS011;52231;40.090;18.348;2023-12-14T13:32:45;9.98;;;2.25;;
65581;SDS011;52231;40.090;18.348;2023-12-14T13:35:14;8.48;;;3.13;;
65581;SDS011;52231;40.090;18.348;2023-12-14T13:37:45;6.93;;;3.08;;
65581;SDS011;52231;40.090;18.348;2023-12-14T13:40:14;5.50;;;2.40;;
65581;SDS011;52231;40.090;18.348;2023-12-14T13:42:44;5.20;;;2.03;;
65581;SDS011;52231;40.090;18.348;2023-12-14T13:45:13;8.32;;;2.28;;
65581;SDS011;52231;40.090;18.348;2023-12-14T13:47:41;7.28;;;2.40;;
65581;SDS011;52231;40.090;18.348;2023-12-14T13:50:09;7.70;;;2.90;;
65581;SDS011;52231;40.090;18.348;2023-12-14T13:52:38;9.32;;;3.17;;
65581;SDS011;52231;40.090;18.348;2023-12-14T13:55:06;5.68;;;2.20;;
65581;SDS011;52231;40.090;18.348;2023-12-14T13:57:34;6.10;;;2.20;;
65581;SDS011;52231;40.090;18.348;2023-12-14T14:00:02;11.82;;;4.82;;
65581;SDS011;52231;40.090;18.348;2023-12-14T14:02:31;7.43;;;3.28;;
65581;SDS011;52231;40.090;18.348;2023-12-14T14:07:27;7.80;;;3.00;;
65581;SDS011;52231;40.090;18.348;2023-12-14T14:09:56;6.35;;;2.55;;
65581;SDS011;52231;40.090;18.348;2023-12-14T14:12:24;7.32;;;2.30;;
65581;SDS011;52231;40.090;18.348;2023-12-14T14:14:52;5.00;;;1.90;;
65581;SDS011;52231;40.090;18.348;2023-12-14T14:17:21;4.55;;;1.90;;
65581;SDS011;52231;40.090;18.348;2023-12-14T14:19:49;4.97;;;2.00;;
65581;SDS011;52231;40.090;18.348;2023-12-14T14:22:17;7.03;;;2.80;;
65581;SDS011;52231;40.090;18.348;2023-12-14T14:24:47;6.28;;;2.10;;
65581;SDS011;52231;40.090;18.348;2023-12-14T14:27:16;5.75;;;2.50;;
65581;SDS011;52231;40.090;18.348;2023-12-14T14:29:44;8.70;;;3.80;;
65581;SDS011;52231;40.090;18.348;2023-12-14T14:32:12;11.63;;;5.28;;
65581;SDS011;52231;40.090;18.348;2023-12-14T14:34:42;11.93;;;4.85;;
65581;SDS011;52231;40.090;18.348;2023-12-14T14:37:10;9.40;;;4.25;;
65581;SDS011;52231;40.090;18.348;2023-12-14T14:39:38;10.02;;;3.08;;
65581;SDS011;52231;40.090;18.348;2023-12-14T14:42:10;6.85;;;2.45;;
65581;SDS011;52231;40.090;18.348;2023-12-14T14:44:39;7.88;;;2.80;;
65581;SDS011;52231;40.090;18.348;2023-12-14T14:47:08;7.70;;;3.00;;
65581;SDS011;52231;40.090;18.348;2023-12-14T14:49:36;8.38;;;2.88;;
65581;SDS011;52231;40.090;18.348;2023-12-14T14:52:04;7.65;;;2.70;;
65581;SDS011;52231;40.090;18.348;2023-12-14T14:54:33;12.10;;;2.95;;
65581;SDS011;52231;40.090;18.348;2023-12-14T14:57:01;8.45;;;2.85;;
65581;SDS011;52231;40.090;18.348;2023-12-14T14:59:30;7.43;;;2.85;;
65581;SDS011;52231;40.090;18.348;2023-12-14T15:01:58;7.78;;;2.58;;
65581;SDS011;52231;40.090;18.348;2023-12-14T15:04:29;6.70;;;2.70;;